Time;durP1;ratioP1;P1;durP2;ratioP2;P2;SDS_P1;SDS_P2;PMS_P1;PMS_P2;Temp;Humidity;BMP_temperature;BMP_pressure;BME280_temperature;BME280_humidity;BME280_pressure;Samples;Min_cycle;Max_cycle;Signal;HPM_P1;HPM_P2
2023/04/11 00:00:51;;;;;;;39.95;6.22;;;9.70;99.90;;;;;;5092369;28;20365;-64
2023/04/11 00:03:18;;;;;;;36.10;5.72;;;10.00;99.90;;;;;;5092056;28;20044;-64
2023/04/11 00:05:45;;;;;;;37.45;5.65;;;9.70;99.90;;;;;;5091869;28;20098;-68
2023/04/11 00:08:10;;;;;;;;;;;9.90;99.90;;;;;;5092499;28;20040;-66
2023/04/11 00:10:36;;;;;;;31.60;5.50;;;9.80;99.90;;;;;;5091491;28;20318;-64
2023/04/11 00:13:02;;;;;;;34.22;5.68;;;9.70;99.90;;;;;;5091755;28;20162;-65
2023/04/11 00:15:27;;;;;;;30.75;5.28;;;9.80;99.90;;;;;;5091567;28;20050;-65
2023/04/11 00:17:53;;;;;;;31.95;5.82;;;9.70;99.90;;;;;;5090433;28;20075;-65
2023/04/11 00:20:20;;;;;;;33.83;5.68;;;9.50;99.90;;;;;;5091934;28;20125;-66
2023/04/11 00:22:45;;;;;;;;;;;9.50;99.90;;;;;;5092570;28;20066;-76
2023/04/11 00:25:11;;;;;;;30.52;5.15;;;9.70;99.90;;;;;;5092151;28;19922;-65
2023/04/11 00:27:37;;;;;;;30.08;6.72;;;9.60;99.90;;;;;;5091963;28;20525;-65
2023/04/11 00:30:05;;;;;;;48.78;6.22;;;9.70;99.90;;;;;;5092078;28;20051;-64
2023/04/11 00:32:31;;;;;;;44.17;6.85;;;9.20;99.90;;;;;;5091985;28;20044;-64
2023/04/11 00:34:57;;;;;;;41.13;6.25;;;9.60;99.90;;;;;;5092044;28;20069;-65
2023/04/11 00:37:22;;;;;;;37.38;5.68;;;9.20;99.90;;;;;;5091787;28;20040;-64
2023/04/11 00:39:54;;;;;;;39.25;5.97;;;9.20;99.90;;;;;;5091980;28;20081;-65
2023/04/11 00:42:20;;;;;;;31.70;6.22;;;9.60;99.90;;;;;;5092118;28;20048;-64
2023/04/11 00:44:46;;;;;;;34.92;5.25;;;9.30;99.90;;;;;;5091764;28;20051;-69
2023/04/11 00:47:13;;;;;;;30.05;4.95;;;8.70;99.90;;;;;;5091694;28;20056;-65
2023/04/11 00:49:39;;;;;;;27.83;5.63;;;9.00;99.90;;;;;;5095554;28;20051;-64
2023/04/11 00:52:05;;;;;;;31.33;3.97;;;9.00;99.90;;;;;;5095675;28;20051;-64
2023/04/11 00:54:32;;;;;;;19.83;2.95;;;8.90;99.90;;;;;;5095863;28;20044;-65
2023/04/11 00:57:01;;;;;;;;;;;9.00;99.90;;;;;;5096220;28;20055;-65
2023/04/11 00:59:29;;;;;;;11.57;3.70;;;9.00;99.90;;;;;;5095875;28;19949;-68
2023/04/11 01:01:55;;;;;;;17.02;2.75;;;8.90;99.90;;;;;;5095789;28;20043;-68
2023/04/11 01:04:21;;;;;;;11.82;2.15;;;8.70;99.90;;;;;;5095778;28;20054;-64
2023/04/11 01:07:02;;;;;;;9.55;2.35;;;8.50;99.90;;;;;;5095398;28;20040;-64
2023/04/11 01:09:31;;;;;;;12.68;2.40;;;8.50;99.90;;;;;;5095762;28;20052;-66
2023/04/11 01:11:57;;;;;;;15.48;2.30;;;9.30;99.90;;;;;;5095580;28;20048;-64
2023/04/11 01:14:24;;;;;;;18.42;2.35;;;8.30;99.90;;;;;;5095461;28;20105;-66
2023/04/11 01:16:51;;;;;;;9.40;2.03;;;8.60;99.90;;;;;;5095235;28;20575;-66
2023/04/11 01:19:22;;;;;;;11.85;2.00;;;9.50;99.90;;;;;;5095493;28;20130;-64
2023/04/11 01:21:50;;;;;;;9.73;1.65;;;8.50;99.90;;;;;;5095084;28;20055;-64
2023/04/11 01:24:16;;;;;;;9.27;2.03;;;8.40;99.90;;;;;;5095463;28;20408;-64
2023/04/11 01:26:42;;;;;;;8.95;1.80;;;9.70;99.90;;;;;;5094930;28;20062;-64
2023/04/11 01:29:08;;;;;;;11.40;2.47;;;8.20;99.90;;;;;;5095325;28;20135;-63
2023/04/11 01:31:34;;;;;;;10.55;1.88;;;8.30;99.90;;;;;;5095328;28;20131;-64
2023/04/11 01:34:01;;;;;;;12.82;1.85;;;8.20;99.90;;;;;;5095298;28;20494;-67
2023/04/11 01:36:31;;;;;;;17.45;2.08;;;8.50;99.90;;;;;;5094862;28;20123;-65
2023/04/11 01:38:57;;;;;;;6.32;1.35;;;8.30;99.90;;;;;;5095068;28;20545;-65
2023/04/11 01:41:25;;;;;;;10.32;1.60;;;8.00;99.90;;;;;;5095044;28;20203;-64
2023/04/11 01:43:51;;;;;;;10.63;1.85;;;8.50;99.90;;;;;;5094960;28;20048;-64
2023/04/11 01:46:17;;;;;;;15.82;1.92;;;8.60;99.90;;;;;;5094948;28;20127;-64
2023/04/11 01:48:44;;;;;;;12.43;3.55;;;7.80;99.90;;;;;;5093788;28;20564;-68
2023/04/11 01:51:10;;;;;;;13.85;2.17;;;8.40;99.90;;;;;;5094609;28;20631;-66
2023/04/11 01:53:36;;;;;;;13.98;2.35;;;8.20;99.90;;;;;;5094804;28;20052;-65
2023/04/11 01:56:02;;;;;;;9.02;1.90;;;8.10;99.90;;;;;;5094665;28;20043;-65
2023/04/11 01:58:28;;;;;;;12.20;2.42;;;8.20;99.90;;;;;;5094166;28;20110;-65
2023/04/11 02:00:53;;;;;;;10.45;2.20;;;8.30;99.90;;;;;;5094569;28;20043;-65
2023/04/11 02:03:20;;;;;;;10.90;2.30;;;8.20;99.90;;;;;;5094214;28;20048;-65
2023/04/11 02:05:45;;;;;;;6.68;1.70;;;7.90;99.90;;;;;;5094262;28;20162;-65
2023/04/11 02:08:11;;;;;;;7.25;1.90;;;8.10;99.90;;;;;;5094539;28;20136;-67
2023/04/11 02:10:37;;;;;;;11.10;2.47;;;8.20;99.90;;;;;;5094494;28;20083;-65
2023/04/11 02:13:03;;;;;;;14.25;2.58;;;8.20;99.90;;;;;;5094294;28;20126;-65
2023/04/11 02:15:28;;;;;;;6.95;2.70;;;7.70;99.90;;;;;;5094238;28;20112;-64
2023/04/11 02:17:56;;;;;;;9.88;2.28;;;8.20;99.90;;;;;;5094184;28;20048;-64
2023/04/11 02:20:22;;;;;;;11.48;2.03;;;7.40;99.90;;;;;;5093658;28;20112;-69
2023/04/11 02:22:48;;;;;;;14.38;2.60;;;8.20;99.90;;;;;;5094189;28;20536;-64
2023/04/11 02:25:13;;;;;;;9.07;1.67;;;7.90;99.90;;;;;;5093859;28;20044;-65
2023/04/11 02:27:39;;;;;;;7.70;2.13;;;7.90;99.90;;;;;;5093838;28;20067;-64
2023/04/11 02:30:06;;;;;;;10.43;1.90;;;8.30;99.90;;;;;;5094054;28;20468;-65
2023/04/11 02:32:36;;;;;;;8.50;1.92;;;8.20;99.90;;;;;;5093664;28;20047;-65
2023/04/11 02:35:08;;;;;;;8.73;2.30;;;8.20;99.90;;;;;;5093640;28;20046;-65
2023/04/11 02:37:34;;;;;;;7.60;2.28;;;8.30;99.90;;;;;;5093928;28;20048;-65
2023/04/11 02:40:02;;;;;;;12.70;1.98;;;8.50;99.90;;;;;;5093787;28;20035;-64
2023/04/11 02:42:27;;;;;;;5.82;1.73;;;8.20;99.90;;;;;;5093685;28;20051;-66
2023/04/11 02:44:54;;;;;;;10.45;2.20;;;7.90;99.90;;;;;;5093971;28;20054;-67
2023/04/11 02:47:20;;;;;;;5.22;1.80;;;8.20;99.90;;;;;;5093666;28;20044;-64
2023/04/11 02:49:46;;;;;;;13.63;2.13;;;7.90;99.90;;;;;;5093100;28;20137;-70
2023/04/11 02:52:11;;;;;;;11.05;2.38;;;8.10;99.90;;;;;;5093228;28;20048;-64
2023/04/11 02:54:37;;;;;;;9.40;2.00;;;8.20;99.90;;;;;;5092507;28;20044;-65
2023/04/11 02:57:03;;;;;;;16.67;2.80;;;8.90;99.90;;;;;;5093481;28;20089;-66
2023/04/11 02:59:29;;;;;;;14.52;2.50;;;8.00;99.90;;;;;;5093479;28;20056;-64
2023/04/11 03:01:59;;;;;;;9.70;2.30;;;8.00;99.90;;;;;;5093418;28;20140;-65
2023/04/11 03:04:25;;;;;;;9.82;2.22;;;8.20;99.90;;;;;;5092723;28;20407;-64
2023/04/11 03:06:51;;;;;;;17.05;2.47;;;8.70;99.90;;;;;;5092977;28;20663;-67
2023/04/11 03:09:16;;;;;;;13.90;2.65;;;8.00;99.90;;;;;;5093366;28;20047;-66
2023/04/11 03:11:42;;;;;;;10.70;2.53;;;8.70;99.90;;;;;;5092387;28;20051;-65
2023/04/11 03:14:08;;;;;;;15.85;3.05;;;8.40;99.90;;;;;;5093108;28;20040;-65
2023/04/11 03:16:33;;;;;;;11.57;2.33;;;8.20;99.90;;;;;;5093104;28;20137;-64
2023/04/11 03:18:59;;;;;;;21.23;3.15;;;8.00;99.90;;;;;;5092754;28;20052;-65
2023/04/11 03:21:26;;;;;;;15.85;2.60;;;7.90;99.90;;;;;;5092988;28;20056;-68
2023/04/11 03:23:51;;;;;;;;;;;8.00;99.90;;;;;;5093325;28;20079;-66
2023/04/11 03:26:17;;;;;;;19.05;3.20;;;7.90;99.90;;;;;;5092626;28;20028;-65
2023/04/11 03:28:44;;;;;;;18.13;3.05;;;7.80;99.90;;;;;;5092977;28;20048;-64
2023/04/11 03:31:10;;;;;;;11.48;2.75;;;8.00;99.90;;;;;;5092852;28;20101;-64
2023/04/11 03:33:37;;;;;;;17.25;2.60;;;8.20;99.90;;;;;;5092607;28;20062;-67
2023/04/11 03:36:03;;;;;;;17.73;3.47;;;7.80;99.90;;;;;;5092765;28;20051;-64
2023/04/11 03:38:29;;;;;;;9.68;2.50;;;8.20;99.90;;;;;;5092405;28;20052;-65
2023/04/11 03:40:55;;;;;;;17.60;3.53;;;8.20;99.90;;;;;;5092626;28;20105;-64
2023/04/11 03:43:20;;;;;;;16.23;2.75;;;8.00;99.90;;;;;;5092830;28;20488;-64
2023/04/11 03:45:46;;;;;;;10.48;2.85;;;8.00;99.90;;;;;;5092691;28;20044;-78
2023/04/11 03:48:12;;;;;;;16.13;3.20;;;8.10;99.90;;;;;;5092850;28;20078;-66
2023/04/11 03:50:38;;;;;;;15.48;3.50;;;8.00;99.90;;;;;;5092692;28;20047;-65
2023/04/11 03:53:04;;;;;;;16.38;2.83;;;8.10;99.90;;;;;;5092517;28;20046;-65
2023/04/11 03:55:30;;;;;;;;;;;8.20;99.90;;;;;;5092921;28;20088;-64
2023/04/11 03:57:55;;;;;;;12.18;2.60;;;8.30;99.90;;;;;;5092165;28;19986;-66
2023/04/11 04:00:21;;;;;;;16.10;3.45;;;8.00;99.90;;;;;;5092095;28;20078;-64
2023/04/11 04:02:47;;;;;;;12.60;3.40;;;8.10;99.90;;;;;;5092254;28;20146;-66
2023/04/11 04:05:13;;;;;;;15.23;3.30;;;8.10;99.90;;;;;;5092350;28;20048;-67
2023/04/11 04:07:38;;;;;;;13.48;3.05;;;8.20;99.90;;;;;;5092196;28;20086;-66
2023/04/11 04:10:05;;;;;;;19.58;3.22;;;8.20;99.90;;;;;;5092289;28;20086;-65
2023/04/11 04:12:31;;;;;;;17.50;3.47;;;8.40;99.90;;;;;;5092316;28;20050;-64
2023/04/11 04:14:56;;;;;;;15.50;3.10;;;8.10;99.90;;;;;;5091715;28;20051;-65
2023/04/11 04:17:22;;;;;;;15.02;3.88;;;8.30;99.90;;;;;;5091994;28;20048;-66
2023/04/11 04:19:48;;;;;;;15.55;3.67;;;8.00;99.90;;;;;;5092113;28;20071;-67
2023/04/11 04:22:16;;;;;;;13.65;3.88;;;7.90;99.90;;;;;;5090371;28;20450;-65
2023/04/11 04:24:45;;;;;;;22.70;3.67;;;8.20;99.90;;;;;;5092105;28;20056;-67
2023/04/11 04:27:12;;;;;;;19.33;4.65;;;8.20;99.90;;;;;;5091551;28;20178;-64
2023/04/11 04:29:45;;;;;;;17.23;3.83;;;8.10;99.90;;;;;;5090770;28;20450;-66
2023/04/11 04:32:19;;;;;;;17.00;4.07;;;7.70;99.90;;;;;;5092151;28;20040;-65
2023/04/11 04:34:53;;;;;;;17.30;4.03;;;8.10;99.90;;;;;;5091856;28;20553;-65
2023/04/11 04:37:23;;;;;;;15.45;3.53;;;8.00;99.90;;;;;;5092105;28;20044;-65
2023/04/11 04:39:55;;;;;;;13.95;3.20;;;7.90;99.90;;;;;;5091977;28;20127;-65
2023/04/11 04:42:25;;;;;;;11.85;3.10;;;8.00;99.90;;;;;;5092046;28;20088;-66
2023/04/11 04:44:52;;;;;;;12.85;3.10;;;7.90;99.90;;;;;;5091729;28;20044;-67
2023/04/11 04:47:20;;;;;;;11.60;3.25;;;7.70;99.90;;;;;;5091908;28;20037;-70
2023/04/11 04:49:46;;;;;;;16.95;3.35;;;7.40;99.90;;;;;;5091949;28;20051;-67
2023/04/11 04:52:13;;;;;;;12.20;3.20;;;7.90;99.90;;;;;;5090859;28;20051;-68
2023/04/11 04:54:41;;;;;;;27.85;4.22;;;7.80;99.90;;;;;;5092041;28;20039;-66
2023/04/11 04:57:07;;;;;;;16.13;3.63;;;7.60;99.90;;;;;;5091991;28;20118;-70
2023/04/11 04:59:33;;;;;;;14.63;3.75;;;7.60;99.90;;;;;;5091307;28;20132;-66
2023/04/11 05:01:59;;;;;;;20.25;4.53;;;7.50;99.90;;;;;;5090872;28;20106;-66
2023/04/11 05:04:25;;;;;;;12.93;4.00;;;8.00;99.90;;;;;;5091916;28;20040;-65
2023/04/11 05:06:50;;;;;;;18.35;4.45;;;7.70;99.90;;;;;;5090581;28;20101;-68
2023/04/11 05:09:17;;;;;;;18.75;4.07;;;7.80;99.90;;;;;;5091851;28;20131;-71
2023/04/11 05:11:42;;;;;;;;;;;7.80;99.90;;;;;;5092428;28;20093;-70
2023/04/11 05:14:09;;;;;;;18.77;3.90;;;7.70;99.90;;;;;;5091615;28;19923;-67
2023/04/11 05:16:36;;;;;;;14.80;3.47;;;7.60;99.90;;;;;;5091787;28;20102;-67
2023/04/11 05:19:02;;;;;;;17.55;3.88;;;7.60;99.90;;;;;;5092106;28;20059;-69
2023/04/11 05:21:28;;;;;;;16.60;3.50;;;7.60;99.90;;;;;;5091638;28;20048;-69
2023/04/11 05:23:53;;;;;;;21.98;4.10;;;7.80;99.90;;;;;;5090321;28;20138;-68
2023/04/11 05:26:19;;;;;;;25.45;3.88;;;7.90;99.90;;;;;;5091470;28;20048;-67
2023/04/11 05:28:45;;;;;;;19.30;4.07;;;7.90;99.90;;;;;;5091463;28;20493;-66
2023/04/11 05:31:11;;;;;;;14.55;3.92;;;7.60;99.90;;;;;;5091831;28;20059;-67
2023/04/11 05:33:38;;;;;;;12.63;3.10;;;7.70;99.90;;;;;;5092420;28;20697;-67
2023/04/11 05:36:05;;;;;;;13.40;3.00;;;7.40;99.90;;;;;;5128544;27;20044;-68
2023/04/11 05:38:32;;;;;;;10.43;2.20;;;7.50;99.90;;;;;;5095380;28;20044;-68
2023/04/11 05:40:58;;;;;;;7.20;1.42;;;7.30;99.90;;;;;;5094394;28;20551;-69
2023/04/11 05:43:24;;;;;;;3.97;1.52;;;7.20;99.90;;;;;;5093671;28;20048;-69
2023/04/11 05:45:50;;;;;;;9.32;2.45;;;6.70;99.90;;;;;;5095109;28;20062;-72
2023/04/11 05:48:18;;;;;;;9.90;1.90;;;6.80;99.90;;;;;;5093756;28;20044;-67
2023/04/11 05:50:44;;;;;;;9.75;2.40;;;6.90;99.90;;;;;;5094990;28;20055;-66
2023/04/11 05:53:10;;;;;;;11.90;1.88;;;7.20;99.90;;;;;;5095020;28;20123;-66
2023/04/11 05:55:36;;;;;;;9.93;2.10;;;6.80;99.90;;;;;;5095012;28;20537;-67
2023/04/11 05:58:02;;;;;;;8.45;1.67;;;7.40;99.90;;;;;;5090276;28;20083;-67
2023/04/11 06:00:31;;;;;;;6.68;1.70;;;6.50;99.90;;;;;;5094458;28;20048;-69
2023/04/11 06:02:57;;;;;;;13.13;2.10;;;6.80;99.90;;;;;;5093145;28;20156;-67
2023/04/11 06:05:24;;;;;;;15.65;1.98;;;6.90;99.90;;;;;;5093641;28;20048;-67
2023/04/11 06:07:50;;;;;;;14.45;2.00;;;7.40;99.90;;;;;;5094303;28;20135;-70
2023/04/11 06:10:15;;;;;;;19.65;2.33;;;6.50;99.90;;;;;;5094126;28;20131;-69
2023/04/11 06:12:41;;;;;;;10.35;1.50;;;7.10;99.90;;;;;;5093509;28;20169;-67
2023/04/11 06:15:08;;;;;;;11.50;1.90;;;6.90;99.90;;;;;;5076153;28;20051;-69
2023/04/11 06:17:34;;;;;;;7.95;1.65;;;7.30;99.90;;;;;;5093866;28;20097;-71
2023/04/11 06:20:00;;;;;;;10.15;2.10;;;6.80;99.90;;;;;;5093116;28;20781;-71
2023/04/11 06:22:26;;;;;;;15.45;1.90;;;6.60;99.90;;;;;;5093666;28;20055;-69
2023/04/11 06:24:51;;;;;;;14.18;1.98;;;7.70;99.90;;;;;;5093612;28;20048;-69
2023/04/11 06:27:17;;;;;;;13.50;1.60;;;6.50;99.90;;;;;;5091291;28;20063;-70
2023/04/11 06:29:43;;;;;;;8.23;1.85;;;7.00;99.90;;;;;;5093630;28;20488;-69
2023/04/11 06:32:11;;;;;;;8.23;1.80;;;6.70;99.90;;;;;;5093547;28;20052;-71
2023/04/11 06:34:39;;;;;;;21.85;2.40;;;6.70;99.90;;;;;;5093089;28;20063;-69
2023/04/11 06:37:08;;;;;;;15.85;2.25;;;6.80;99.90;;;;;;5093521;28;20049;-68
2023/04/11 06:39:34;;;;;;;21.55;2.42;;;6.50;99.90;;;;;;5093405;28;20101;-67
2023/04/11 06:42:01;;;;;;;17.55;2.20;;;6.60;99.90;;;;;;5092547;28;20052;-70
2023/04/11 06:44:27;;;;;;;;;;;6.80;99.90;;;;;;5093461;28;20390;-69
2023/04/11 06:46:53;;;;;;;13.73;2.90;;;6.70;99.90;;;;;;5093440;28;19920;-69
2023/04/11 06:49:18;;;;;;;;;;;7.40;99.90;;;;;;5093234;28;20052;-67
2023/04/11 06:51:50;;;;;;;18.13;4.22;;;6.70;99.90;;;;;;5093040;28;19927;-69
2023/04/11 06:54:19;;;;;;;21.60;5.22;;;7.10;99.90;;;;;;5089554;28;20313;-72
2023/04/11 06:56:46;;;;;;;28.85;4.65;;;7.30;99.90;;;;;;5089321;28;20123;-68
2023/04/11 06:59:12;;;;;;;25.98;4.35;;;7.40;99.90;;;;;;5092535;28;20048;-68
2023/04/11 07:01:38;;;;;;;22.27;4.20;;;7.40;99.90;;;;;;5092765;28;20044;-71
2023/04/11 07:04:07;;;;;;;20.23;4.32;;;7.20;99.90;;;;;;5092288;28;20139;-73
2023/04/11 07:06:36;;;;;;;16.65;4.25;;;7.60;99.90;;;;;;5090198;28;20185;-67
2023/04/11 07:09:03;;;;;;;15.70;3.42;;;7.60;99.90;;;;;;5092424;28;20399;-71
2023/04/11 07:11:29;;;;;;;18.58;3.95;;;7.80;99.90;;;;;;5089800;28;20056;-75
2023/04/11 07:13:56;;;;;;;23.50;4.20;;;7.70;99.90;;;;;;5091905;28;20066;-69
2023/04/11 07:16:22;;;;;;;17.15;3.13;;;7.70;99.90;;;;;;5091453;28;20420;-71
2023/04/11 07:18:47;;;;;;;15.60;3.85;;;7.80;99.90;;;;;;5091647;28;20051;-67
2023/04/11 07:21:14;;;;;;;20.73;3.65;;;7.80;99.90;;;;;;5093163;28;20036;-69
2023/04/11 07:23:41;;;;;;;17.48;3.90;;;7.60;99.90;;;;;;5092442;28;20091;-71
2023/04/11 07:26:10;;;;;;;15.18;3.53;;;7.90;99.90;;;;;;5092113;28;20097;-69
2023/04/11 07:28:37;;;;;;;21.50;3.42;;;8.00;99.90;;;;;;5092965;28;20507;-69
2023/04/11 07:31:04;;;;;;;19.85;3.88;;;7.90;99.90;;;;;;5092798;28;20102;-71
2023/04/11 07:33:30;;;;;;;17.20;3.83;;;7.90;99.90;;;;;;5092545;28;20586;-69
2023/04/11 07:35:56;;;;;;;18.92;3.80;;;8.00;99.90;;;;;;5093064;28;20123;-68
2023/04/11 07:38:30;;;;;;;18.30;3.58;;;8.20;99.90;;;;;;5092535;28;20066;-69
2023/04/11 07:40:57;;;;;;;13.32;3.10;;;8.80;99.90;;;;;;5092370;28;20488;-69
2023/04/11 07:43:24;;;;;;;15.40;3.20;;;8.60;99.90;;;;;;5074584;28;20103;-71
2023/04/11 07:45:51;;;;;;;16.63;3.30;;;8.20;99.90;;;;;;5092550;28;20401;-70
2023/04/11 07:48:16;;;;;;;;;;;8.40;99.90;;;;;;5091462;28;20044;-67
2023/04/11 07:50:42;;;;;;;8.40;2.50;;;8.30;99.90;;;;;;5091025;28;19924;-69
2023/04/11 07:53:09;;;;;;;14.95;3.67;;;8.70;99.90;;;;;;5090773;28;20044;-67
2023/04/11 07:55:36;;;;;;;19.15;2.92;;;8.40;99.90;;;;;;5090676;28;20044;-69
2023/04/11 07:58:03;;;;;;;10.98;2.88;;;8.90;99.90;;;;;;5090828;28;20131;-68
2023/04/11 08:00:31;;;;;;;19.23;3.65;;;9.20;99.90;;;;;;5092189;28;20052;-68
2023/04/11 08:03:01;;;;;;;16.85;2.80;;;9.20;99.90;;;;;;5091522;28;20052;-70
2023/04/11 08:05:28;;;;;;;13.43;3.35;;;9.90;99.90;;;;;;5091658;28;20047;-70
2023/04/11 08:07:54;;;;;;;18.98;3.47;;;9.50;99.90;;;;;;5090553;28;20040;-68
2023/04/11 08:10:19;;;;;;;17.20;3.47;;;9.40;99.90;;;;;;5089928;28;20458;-72
2023/04/11 08:12:45;;;;;;;9.63;2.70;;;9.00;99.90;;;;;;5091268;28;20047;-68
2023/04/11 08:15:11;;;;;;;14.68;3.08;;;8.80;99.90;;;;;;5072944;28;20048;-70
2023/04/11 08:17:37;;;;;;;12.82;2.78;;;8.90;99.90;;;;;;5092118;28;20126;-72
2023/04/11 08:20:04;;;;;;;16.63;3.88;;;8.90;99.90;;;;;;5091681;28;20047;-67
2023/04/11 08:22:32;;;;;;;17.70;5.75;;;8.60;99.90;;;;;;5091715;28;20068;-67
2023/04/11 08:24:57;;;;;;;21.92;4.40;;;8.50;99.90;;;;;;5092010;28;20052;-69
2023/04/11 08:27:23;;;;;;;21.50;4.65;;;8.50;99.90;;;;;;5091200;28;20056;-65
2023/04/11 08:29:49;;;;;;;20.05;3.70;;;9.30;99.90;;;;;;5091936;28;20066;-66
2023/04/11 08:32:15;;;;;;;14.23;3.08;;;8.80;99.90;;;;;;5091909;28;20044;-68
2023/04/11 08:34:40;;;;;;;18.52;3.10;;;8.80;99.90;;;;;;5091887;28;20480;-65
2023/04/11 08:37:06;;;;;;;18.13;3.30;;;9.40;99.90;;;;;;5091582;28;20040;-67
2023/04/11 08:39:32;;;;;;;14.48;3.17;;;9.30;99.90;;;;;;5091867;28;20122;-66
2023/04/11 08:41:58;;;;;;;12.63;3.17;;;9.00;99.90;;;;;;5091505;28;20098;-68
2023/04/11 08:44:24;;;;;;;10.38;2.78;;;8.40;99.90;;;;;;5092019;28;20131;-65
2023/04/11 08:46:50;;;;;;;18.17;3.53;;;7.80;99.90;;;;;;5091675;28;20564;-66
2023/04/11 08:49:16;;;;;;;12.32;3.03;;;7.70;99.90;;;;;;5091558;28;20106;-66
2023/04/11 08:51:43;;;;;;;19.20;2.95;;;7.50;99.90;;;;;;5090980;28;20044;-66
2023/04/11 08:54:09;;;;;;;14.68;3.28;;;7.90;99.90;;;;;;5091664;28;20063;-67
2023/04/11 08:56:35;;;;;;;20.13;3.33;;;7.80;99.90;;;;;;5091401;28;20044;-65
2023/04/11 08:59:01;;;;;;;17.50;3.90;;;9.00;99.90;;;;;;5091609;28;20423;-69
2023/04/11 09:01:28;;;;;;;;;;;9.10;99.90;;;;;;5091722;28;20109;-69
2023/04/11 09:03:54;;;;;;;12.80;2.93;;;9.30;99.90;;;;;;5092102;28;19920;-70
2023/04/11 09:06:20;;;;;;;16.30;3.88;;;9.20;99.90;;;;;;5091646;28;20052;-68
2023/04/11 09:08:46;;;;;;;17.38;3.17;;;9.40;99.90;;;;;;5092573;28;20044;-70
2023/04/11 09:11:12;;;;;;;16.40;3.35;;;9.20;99.90;;;;;;5094660;28;20044;-66
2023/04/11 09:13:37;;;;;;;14.00;3.38;;;9.20;99.90;;;;;;5096039;28;20043;-68
2023/04/11 09:16:05;;;;;;;14.70;2.85;;;9.60;99.90;;;;;;5094725;28;20044;-69
2023/04/11 09:18:41;;;;;;;16.98;2.22;;;9.40;99.90;;;;;;5095438;28;20518;-68
2023/04/11 09:21:12;;;;;;;11.95;2.63;;;9.20;99.90;;;;;;5094100;28;20424;-67
2023/04/11 09:23:38;;;;;;;8.93;2.03;;;9.60;99.90;;;;;;5095554;28;20105;-65
2023/04/11 09:26:06;;;;;;;14.93;3.17;;;9.50;99.90;;;;;;5095822;28;20476;-69
2023/04/11 09:28:43;;;;;;;17.00;2.80;;;9.80;99.90;;;;;;5093850;28;20488;-68
2023/04/11 09:31:11;;;;;;;15.90;2.65;;;10.20;99.90;;;;;;5095164;28;20480;-70
2023/04/11 09:33:37;;;;;;;15.27;2.70;;;10.10;99.90;;;;;;5095359;28;20552;-71
2023/04/11 09:36:18;;;;;;;11.38;3.15;;;10.00;99.90;;;;;;5093717;28;20400;-69
2023/04/11 09:38:44;;;;;;;11.43;3.35;;;9.90;99.90;;;;;;5095224;28;20453;-68
2023/04/11 09:41:10;;;;;;;12.95;2.85;;;9.70;99.90;;;;;;5095204;28;20130;-68
2023/04/11 09:43:54;;;;;;;13.73;2.45;;;9.70;99.90;;;;;;5095148;28;20091;-67
2023/04/11 09:46:20;;;;;;;18.63;2.60;;;10.00;99.90;;;;;;5095160;28;20446;-69
2023/04/11 09:48:50;;;;;;;15.00;2.88;;;10.40;99.90;;;;;;5094688;28;20052;-71
2023/04/11 09:51:17;;;;;;;11.73;2.70;;;10.10;99.90;;;;;;5095018;28;20427;-71
2023/04/11 09:53:43;;;;;;;16.02;3.10;;;10.50;99.90;;;;;;5094529;28;20120;-66
2023/04/11 09:56:09;;;;;;;17.92;3.03;;;10.50;99.90;;;;;;5076947;28;20540;-64
2023/04/11 09:58:37;;;;;;;23.63;3.13;;;10.40;99.90;;;;;;5094768;28;20086;-65
2023/04/11 10:01:08;;;;;;;14.95;3.38;;;10.50;99.90;;;;;;5094681;28;20085;-70
2023/04/11 10:03:37;;;;;;;14.60;2.90;;;10.40;99.90;;;;;;5093270;28;20369;-67
2023/04/11 10:06:21;;;;;;;14.90;2.85;;;10.40;99.90;;;;;;5094705;28;20048;-69
2023/04/11 10:08:49;;;;;;;8.93;1.90;;;10.50;99.90;;;;;;5094665;28;20047;-69
2023/04/11 10:11:19;;;;;;;8.07;2.05;;;10.30;99.90;;;;;;5094520;28;20488;-69
2023/04/11 10:13:46;;;;;;;2.70;1.42;;;10.60;99.90;;;;;;5094502;28;20040;-67
2023/04/11 10:16:17;;;;;;;9.07;1.70;;;10.60;99.90;;;;;;5091648;28;20054;-75
2023/04/11 10:18:52;;;;;;;8.43;2.13;;;10.10;99.90;;;;;;5092884;28;20040;-68
2023/04/11 10:21:29;;;;;;;11.27;2.20;;;10.30;99.90;;;;;;5093910;28;20044;-68
2023/04/11 10:24:14;;;;;;;13.70;2.85;;;10.20;99.90;;;;;;5088687;28;20044;-67
2023/04/11 10:26:52;;;;;;;14.60;2.50;;;11.00;99.90;;;;;;5093320;28;20036;-66
2023/04/11 10:29:32;;;;;;;14.82;2.33;;;10.80;99.90;;;;;;5093939;28;20097;-66
2023/04/11 10:32:16;;;;;;;11.27;2.40;;;10.50;99.90;;;;;;5093086;28;20091;-71
2023/04/11 10:34:53;;;;;;;13.63;2.20;;;10.20;99.90;;;;;;5093702;28;20051;-71
2023/04/11 10:37:32;;;;;;;15.15;2.90;;;10.80;99.90;;;;;;5093482;28;20040;-67
2023/04/11 10:39:59;;;;;;;17.45;3.28;;;10.90;99.90;;;;;;5092309;28;20052;-67
2023/04/11 10:42:29;;;;;;;21.92;3.53;;;10.80;99.90;;;;;;5093499;28;20067;-75
2023/04/11 10:45:29;;;;;;;9.15;2.70;;;10.50;99.90;;;;;;5091579;28;20043;-74
2023/04/11 10:47:55;;;;;;;14.75;2.50;;;9.10;99.90;;;;;;5091504;28;20048;-72
2023/04/11 10:50:29;;;;;;;19.70;3.25;;;8.40;99.90;;;;;;5093273;28;20055;-73
2023/04/11 10:52:59;;;;;;;12.88;3.17;;;8.40;99.90;;;;;;5092234;28;20063;-73
2023/04/11 10:55:27;;;;;;;9.90;2.17;;;8.40;99.90;;;;;;5093174;28;20051;-75
2023/04/11 10:58:18;;;;;;;10.15;2.00;;;8.30;99.90;;;;;;5091665;28;20471;-75
2023/04/11 11:00:50;;;;;;;9.07;2.40;;;8.00;99.90;;;;;;5092639;28;20075;-76
2023/04/11 11:03:22;;;;;;;7.07;2.30;;;7.90;99.90;;;;;;5091992;28;20139;-72
2023/04/11 11:06:05;;;;;;;6.85;1.73;;;8.00;99.90;;;;;;5093236;28;20048;-71
2023/04/11 11:08:40;;;;;;;8.02;2.00;;;7.80;99.90;;;;;;5092517;28;20395;-73
2023/04/11 11:11:08;;;;;;;10.07;2.20;;;7.80;99.90;;;;;;5092979;28;20044;-73
2023/04/11 11:13:37;;;;;;;10.02;3.17;;;7.90;99.90;;;;;;5092105;28;20392;-67
2023/04/11 11:16:03;;;;;;;16.90;3.60;;;8.20;99.90;;;;;;5092361;28;20106;-69
2023/04/11 11:18:29;;;;;;;20.48;3.75;;;8.30;99.90;;;;;;5091874;28;20641;-69
2023/04/11 11:20:55;;;;;;;10.80;2.35;;;8.70;99.90;;;;;;5086390;28;20048;-78
2023/04/11 11:23:21;;;;;;;9.82;2.38;;;8.60;99.90;;;;;;5092282;28;20519;-68
2023/04/11 11:25:54;;;;;;;11.70;2.35;;;8.90;99.90;;;;;;5092965;28;20055;-70
2023/04/11 11:28:20;;;;;;;15.05;3.08;;;9.10;99.90;;;;;;5091312;28;20087;-64
2023/04/11 11:30:54;;;;;;;12.35;2.83;;;9.40;99.90;;;;;;5091464;28;20082;-68
2023/04/11 11:33:27;;;;;;;14.18;3.22;;;9.40;99.90;;;;;;5091232;28;20146;-75
2023/04/11 11:35:59;;;;;;;11.52;2.85;;;9.50;99.90;;;;;;5091746;28;20514;-73
2023/04/11 11:38:29;;;;;;;13.10;3.20;;;9.00;99.90;;;;;;5092626;28;20054;-72
2023/04/11 11:40:56;;;;;;;13.25;3.50;;;9.30;99.90;;;;;;5091122;28;20055;-69
2023/04/11 11:43:22;;;;;;;9.93;2.20;;;9.30;99.90;;;;;;5092617;28;20077;-69
2023/04/11 11:46:09;;;;;;;13.25;2.53;;;9.70;99.90;;;;;;5087540;28;20039;-67
2023/04/11 11:48:35;;;;;;;11.95;2.60;;;9.50;99.90;;;;;;5072278;28;20048;-68
2023/04/11 11:51:01;;;;;;;10.52;3.00;;;9.70;99.90;;;;;;5072046;28;20048;-67
2023/04/11 11:53:27;;;;;;;17.77;3.90;;;9.80;99.90;;;;;;5071430;28;20055;-69
2023/04/11 11:55:53;;;;;;;11.93;3.38;;;9.70;99.90;;;;;;5104258;28;20143;-70
2023/04/11 11:58:19;;;;;;;;;;;9.90;99.90;;;;;;5105031;28;20503;-66
2023/04/11 12:00:49;;;;;;;17.65;3.90;;;9.80;99.90;;;;;;5070786;28;20401;-71
2023/04/11 12:03:24;;;;;;;19.00;2.95;;;9.80;99.90;;;;;;5072051;28;20481;-70
2023/04/11 12:05:51;;;;;;;11.85;2.88;;;9.80;99.90;;;;;;5070204;28;20412;-66
2023/04/11 12:08:22;;;;;;;18.63;2.72;;;10.00;99.90;;;;;;5071271;28;20074;-68
2023/04/11 12:10:49;;;;;;;10.82;2.55;;;9.70;99.90;;;;;;5071481;28;20396;-70
2023/04/11 12:13:18;;;;;;;10.18;2.15;;;10.00;99.90;;;;;;5071206;28;20052;-69
2023/04/11 12:15:51;;;;;;;16.90;2.65;;;9.80;99.90;;;;;;5071165;28;20076;-70
2023/04/11 12:18:20;;;;;;;9.02;2.45;;;10.10;99.90;;;;;;5104304;28;20052;-70
2023/04/11 12:20:46;;;;;;;8.63;2.40;;;10.20;99.90;;;;;;5104355;28;20052;-69
2023/04/11 12:23:12;;;;;;;21.33;3.08;;;10.20;99.90;;;;;;5071081;28;20098;-69
2023/04/11 12:25:37;;;;;;;17.52;3.40;;;10.20;99.90;;;;;;5104016;28;20055;-69
2023/04/11 12:28:03;;;;;;;22.08;3.35;;;10.50;99.90;;;;;;5070906;28;20075;-71
2023/04/11 12:30:29;;;;;;;20.27;3.45;;;10.50;99.90;;;;;;5103754;28;20056;-71
2023/04/11 12:32:55;;;;;;;13.13;2.35;;;10.50;99.90;;;;;;5071411;28;20079;-67
2023/04/11 12:35:20;;;;;;;8.00;2.03;;;10.80;99.90;;;;;;5071512;28;20052;-69
2023/04/11 12:37:46;;;;;;;6.57;1.77;;;10.60;99.90;;;;;;5103559;28;20053;-66
2023/04/11 12:40:12;;;;;;;13.85;2.60;;;10.60;99.90;;;;;;5086700;28;20081;-67
2023/04/11 12:42:39;;;;;;;14.35;3.03;;;10.30;99.90;;;;;;5070936;28;20063;-74
2023/04/11 12:45:06;;;;;;;13.27;2.85;;;10.30;99.90;;;;;;5075371;28;20080;-73
2023/04/11 12:47:33;;;;;;;19.15;2.67;;;10.30;99.90;;;;;;5086553;28;20036;-67
2023/04/11 12:49:59;;;;;;;12.07;2.65;;;10.50;99.90;;;;;;5095379;28;20122;-66
2023/04/11 12:52:27;;;;;;;;;;;10.10;99.90;;;;;;5096212;28;20090;-70